Time;durP1;ratioP1;P1;durP2;ratioP2;P2;SDS_P1;SDS_P2;PMS_P1;PMS_P2;Temp;Humidity;BMP_temperature;BMP_pressure;BME280_temperature;BME280_humidity;BME280_pressure;Samples;Min_cycle;Max_cycle;Signal;HPM_P1;HPM_P2
2022/11/03 00:01:48;;;;;;;8.67;5.27;;;8.20;99.90;;;;;;10465404;28;20237;-80
2022/11/03 00:06:52;;;;;;;11.03;5.87;;;8.20;99.90;;;;;;10477157;28;20223;-78
2022/11/03 00:11:52;;;;;;;10.17;5.80;;;8.10;99.90;;;;;;10473739;28;20226;-78
2022/11/03 00:16:53;;;;;;;9.53;5.50;;;8.10;99.90;;;;;;10478688;28;20741;-77
2022/11/03 00:21:54;;;;;;;10.87;6.70;;;8.10;99.90;;;;;;10470362;28;20219;-79
2022/11/03 00:26:54;;;;;;;11.80;5.50;;;8.10;99.90;;;;;;10507907;28;20590;-80
2022/11/03 00:31:55;;;;;;;10.07;6.20;;;8.00;99.90;;;;;;10473477;28;20317;-78
2022/11/03 00:36:55;;;;;;;10.43;5.20;;;8.00;99.90;;;;;;10461250;28;20582;-78
2022/11/03 00:41:56;;;;;;;7.53;4.93;;;7.90;99.90;;;;;;10474032;28;20316;-78
2022/11/03 00:46:56;;;;;;;9.90;5.40;;;7.90;99.90;;;;;;10493559;28;20218;-78
2022/11/03 00:51:57;;;;;;;11.50;6.00;;;7.90;99.90;;;;;;10509774;28;20232;-78
2022/11/03 00:56:57;;;;;;;12.73;6.20;;;7.90;99.90;;;;;;10469367;28;20232;-79
2022/11/03 01:01:58;;;;;;;9.67;5.80;;;7.90;99.90;;;;;;10470197;28;20630;-79
2022/11/03 01:06:59;;;;;;;12.27;6.00;;;7.80;99.90;;;;;;10467140;28;20216;-76
2022/11/03 01:12:16;;;;;;;11.47;6.03;;;7.80;99.90;;;;;;10467201;28;20749;-79
2022/11/03 01:17:23;;;;;;;10.07;5.30;;;7.80;99.90;;;;;;10459556;28;20221;-77
2022/11/03 01:22:23;;;;;;;8.97;5.50;;;7.70;99.90;;;;;;10474400;28;20221;-77
2022/11/03 01:27:24;;;;;;;10.40;5.20;;;7.70;99.90;;;;;;10471176;28;20597;-78
2022/11/03 01:32:25;;;;;;;11.87;5.50;;;7.60;99.90;;;;;;10471542;28;20917;-79
2022/11/03 01:37:25;;;;;;;12.10;5.77;;;7.60;99.90;;;;;;10474206;28;20646;-79
2022/11/03 01:42:26;;;;;;;11.87;5.37;;;7.50;99.90;;;;;;10504971;28;20571;-78
2022/11/03 01:47:35;;;;;;;9.80;5.17;;;7.50;99.90;;;;;;10467751;28;20273;-78
2022/11/03 01:52:37;;;;;;;11.60;5.43;;;7.50;99.90;;;;;;10466597;28;20231;-78
2022/11/03 01:57:45;;;;;;;11.20;5.60;;;7.50;99.90;;;;;;10503804;28;20225;-78
2022/11/03 02:02:46;;;;;;;9.10;4.80;;;7.60;99.90;;;;;;10472836;28;20220;-77
2022/11/03 02:08:01;;;;;;;9.37;5.00;;;7.60;99.90;;;;;;10468979;28;20226;-77
2022/11/03 02:13:09;;;;;;;9.80;4.90;;;7.50;99.90;;;;;;10466789;28;20244;-76
2022/11/03 02:18:11;;;;;;;8.33;4.63;;;7.50;99.90;;;;;;10460521;28;20917;-78
2022/11/03 02:23:17;;;;;;;8.60;4.37;;;7.50;99.90;;;;;;10473066;28;20335;-79
2022/11/03 02:28:21;;;;;;;10.80;4.57;;;7.50;99.90;;;;;;10485427;28;20220;-79
2022/11/03 02:33:24;;;;;;;9.57;4.73;;;7.50;99.90;;;;;;10469317;28;20253;-77
2022/11/03 02:38:28;;;;;;;8.33;4.30;;;7.50;99.90;;;;;;10464088;28;20274;-78
2022/11/03 02:43:29;;;;;;;8.47;4.20;;;7.50;99.90;;;;;;10468701;28;20211;-77
2022/11/03 02:48:29;;;;;;;10.10;4.70;;;7.40;99.90;;;;;;10464746;28;20261;-76
2022/11/03 02:53:38;;;;;;;8.00;4.53;;;7.40;99.90;;;;;;10465038;28;20227;-78
2022/11/03 02:58:58;;;;;;;7.50;4.70;;;7.40;99.90;;;;;;10494760;28;20224;-79
2022/11/03 03:04:05;;;;;;;12.10;5.30;;;7.40;99.90;;;;;;10462964;28;20927;-78
2022/11/03 03:09:11;;;;;;;8.10;5.23;;;7.40;99.90;;;;;;10443805;28;20312;-78
2022/11/03 03:14:36;;;;;;;18.00;9.80;;;7.30;99.90;;;;;;10485018;28;20234;-77
2022/11/03 03:19:53;;;;;;;10.50;5.40;;;7.20;99.90;;;;;;10488166;28;20313;-78
2022/11/03 03:25:02;;;;;;;10.57;3.93;;;7.20;99.90;;;;;;10462396;28;20224;-78
2022/11/03 03:30:05;;;;;;;6.57;4.10;;;7.10;99.90;;;;;;10465386;28;20926;-78
2022/11/03 03:35:15;;;;;;;9.00;4.17;;;7.10;99.90;;;;;;10469905;28;20290;-78
2022/11/03 03:40:23;;;;;;;11.03;4.17;;;7.00;99.90;;;;;;10461791;28;20184;-78
2022/11/03 03:45:25;;;;;;;9.67;4.30;;;7.00;99.90;;;;;;10461757;28;20275;-78
2022/11/03 03:50:28;;;;;;;8.70;4.23;;;7.00;99.90;;;;;;10459243;28;20233;-77
2022/11/03 03:55:37;;;;;;;6.23;3.90;;;7.00;99.90;;;;;;10459107;28;20306;-77
2022/11/03 04:00:41;;;;;;;8.80;3.80;;;7.00;99.90;;;;;;10455616;28;20226;-78
2022/11/03 04:05:42;;;;;;;9.40;4.13;;;7.00;99.90;;;;;;10461998;28;20219;-77
2022/11/03 04:22:15;;;;;;;8.50;4.07;;;7.00;99.90;;;;;;10468887;28;20719;-78
2022/11/03 04:26:42;;;;;;;5.43;3.50;;;6.90;99.90;;;;;;10475979;28;20713;-77
2022/11/03 04:31:43;;;;;;;8.10;3.70;;;6.90;99.90;;;;;;10470423;28;20257;-78
2022/11/03 04:36:44;;;;;;;9.07;4.03;;;6.90;99.90;;;;;;10471583;28;20219;-77
2022/11/03 04:41:45;;;;;;;7.17;3.60;;;6.90;99.90;;;;;;10464410;28;20227;-78
2022/11/03 04:46:45;;;;;;;6.10;3.57;;;6.90;99.90;;;;;;10470315;28;20229;-78
2022/11/03 04:51:47;;;;;;;5.97;3.20;;;6.80;99.90;;;;;;10469909;28;20232;-77
2022/11/03 04:56:48;;;;;;;7.03;3.80;;;6.80;99.90;;;;;;10508387;28;20226;-77
2022/11/03 05:01:49;;;;;;;5.90;4.07;;;6.80;99.90;;;;;;10469697;28;20638;-74
2022/11/03 05:06:51;;;;;;;9.47;4.13;;;6.80;99.90;;;;;;10461734;28;20219;-74
2022/11/03 05:11:53;;;;;;;6.60;3.60;;;6.80;99.90;;;;;;10473358;28;20610;-74
2022/11/03 05:16:55;;;;;;;8.90;4.33;;;6.80;99.90;;;;;;10464127;28;20699;-74
2022/11/03 05:21:58;;;;;;;9.23;4.07;;;6.80;99.90;;;;;;10474458;28;20284;-72
2022/11/03 05:26:59;;;;;;;6.33;3.80;;;6.70;99.90;;;;;;10467114;28;20266;-71
2022/11/03 05:32:00;;;;;;;11.47;4.67;;;6.70;99.90;;;;;;10474366;28;20270;-71
2022/11/03 05:37:21;;;;;;;10.37;4.47;;;6.60;99.90;;;;;;10493187;28;20232;-72
2022/11/03 05:42:21;;;;;;;11.50;4.47;;;6.50;99.90;;;;;;10461918;28;20223;-72
2022/11/03 05:47:30;;;;;;;9.57;4.20;;;6.50;99.90;;;;;;10503535;28;20221;-73
2022/11/03 05:52:30;;;;;;;8.07;3.80;;;6.60;99.90;;;;;;10469012;28;20240;-73
2022/11/03 05:57:33;;;;;;;9.93;4.50;;;6.50;99.90;;;;;;10470513;28;20222;-73
2022/11/03 06:02:39;;;;;;;8.97;4.00;;;6.50;99.90;;;;;;10470042;28;20321;-73
2022/11/03 06:07:39;;;;;;;9.70;3.53;;;6.40;99.90;;;;;;10468623;28;20330;-73
2022/11/03 06:12:40;;;;;;;11.90;3.80;;;6.40;99.90;;;;;;10470418;28;20654;-72
2022/11/03 06:17:41;;;;;;;6.37;3.37;;;6.50;99.90;;;;;;10467902;28;20224;-73
2022/11/03 06:22:43;;;;;;;7.23;3.70;;;6.60;99.90;;;;;;10464372;28;20215;-74
2022/11/03 06:27:43;;;;;;;9.47;4.07;;;6.70;99.90;;;;;;10470242;28;20257;-73
2022/11/03 06:32:47;;;;;;;10.87;4.17;;;6.80;99.90;;;;;;10467535;28;20275;-73
2022/11/03 06:37:48;;;;;;;10.27;4.60;;;6.90;99.90;;;;;;10460729;28;20216;-74
2022/11/03 06:42:52;;;;;;;14.83;5.30;;;7.00;99.90;;;;;;10464679;28;20307;-74
2022/11/03 06:47:54;;;;;;;8.50;4.87;;;7.10;99.90;;;;;;10469868;28;20786;-73
2022/11/03 06:52:56;;;;;;;10.17;4.93;;;7.30;99.90;;;;;;10497654;28;20623;-72
2022/11/03 06:58:35;;;;;;;13.53;6.00;;;7.60;99.90;;;;;;10470111;28;20221;-73
2022/11/03 07:03:36;;;;;;;13.57;6.13;;;8.00;99.90;;;;;;10467443;28;20222;-73
2022/11/03 07:09:03;;;;;;;15.97;5.73;;;8.40;99.90;;;;;;10499910;28;20226;-73
2022/11/03 07:14:22;;;;;;;15.80;6.67;;;8.80;99.90;;;;;;10448028;28;20284;-73
2022/11/03 07:19:33;;;;;;;17.50;7.20;;;9.20;99.90;;;;;;10449464;28;20289;-74
2022/11/03 07:24:45;;;;;;;13.23;6.60;;;9.60;99.90;;;;;;10450820;28;20506;-73
2022/11/03 07:29:48;;;;;;;13.33;5.93;;;10.00;99.90;;;;;;10479669;28;20226;-73
2022/11/03 07:34:52;;;;;;;14.53;5.53;;;10.30;99.90;;;;;;10460049;28;20301;-73
2022/11/03 07:39:53;;;;;;;18.60;6.33;;;10.60;99.90;;;;;;10463465;28;20223;-73
2022/11/03 07:44:55;;;;;;;14.63;5.77;;;10.90;99.90;;;;;;10454298;28;20223;-73
2022/11/03 07:49:55;;;;;;;12.43;5.37;;;12.10;99.90;;;;;;10455891;28;20223;-72
2022/11/03 07:54:58;;;;;;;12.00;5.40;;;14.70;99.90;;;;;;10462405;28;20212;-74
2022/11/03 08:00:10;;;;;;;11.70;4.87;;;17.10;99.90;;;;;;10469871;28;20295;-75
2022/11/03 08:05:11;;;;;;;16.40;5.40;;;17.80;99.90;;;;;;10420366;28;20217;-73
2022/11/03 08:10:12;;;;;;;13.10;4.80;;;18.00;99.90;;;;;;10466634;28;20280;-72
2022/11/03 08:15:14;;;;;;;10.73;4.10;;;18.50;99.90;;;;;;10468534;28;20190;-73
2022/11/03 08:20:15;;;;;;;8.43;4.60;;;18.50;99.90;;;;;;10496747;28;20218;-73
2022/11/03 08:25:16;;;;;;;10.57;4.40;;;18.10;99.90;;;;;;10475923;28;20193;-74
2022/11/03 08:30:18;;;;;;;7.57;4.23;;;18.20;99.90;;;;;;10467528;28;20214;-75
2022/11/03 08:35:18;;;;;;;10.20;4.30;;;18.90;99.90;;;;;;10460766;28;20263;-74
2022/11/03 08:40:19;;;;;;;7.73;3.70;;;20.10;99.90;;;;;;10500387;28;20223;-74
2022/11/03 08:45:21;;;;;;;10.30;3.90;;;21.00;99.00;;;;;;10467996;28;20191;-74
2022/11/03 08:50:22;;;;;;;8.37;3.70;;;23.10;93.40;;;;;;10468010;28;20258;-75
2022/11/03 08:55:22;;;;;;;11.27;4.37;;;24.70;85.10;;;;;;10462849;28;20250;-73
2022/11/03 09:00:24;;;;;;;10.07;4.53;;;26.10;73.30;;;;;;10462806;28;20261;-75
2022/11/03 09:05:25;;;;;;;13.83;4.90;;;28.00;60.60;;;;;;10474010;28;20254;-75
2022/11/03 09:10:26;;;;;;;14.27;4.43;;;28.20;57.00;;;;;;10495742;28;20699;-75
2022/11/03 09:15:27;;;;;;;11.50;4.40;;;28.40;55.80;;;;;;10465539;28;20692;-75
2022/11/03 09:20:27;;;;;;;13.87;4.73;;;28.90;53.20;;;;;;10459965;28;20700;-75
2022/11/03 09:25:28;;;;;;;10.40;4.63;;;27.00;54.80;;;;;;10467702;28;20602;-75
2022/11/03 09:30:28;;;;;;;9.20;4.30;;;24.50;59.00;;;;;;10459867;28;20242;-74
2022/11/03 09:35:29;;;;;;;10.10;4.47;;;22.60;65.20;;;;;;10458952;28;20219;-74
2022/11/03 09:40:29;;;;;;;12.07;4.30;;;20.90;72.00;;;;;;10465527;28;20223;-74
2022/11/03 09:45:31;;;;;;;10.47;4.63;;;19.50;78.70;;;;;;10461891;28;20592;-75
2022/11/03 09:50:31;;;;;;;9.47;4.37;;;18.50;83.90;;;;;;10470840;28;20255;-75
2022/11/03 09:55:32;;;;;;;11.23;4.10;;;17.70;88.90;;;;;;10466644;28;20271;-75
2022/11/03 10:00:33;;;;;;;10.33;4.37;;;17.30;90.90;;;;;;10452817;28;20222;-73
2022/11/03 10:05:34;;;;;;;11.90;4.23;;;17.30;92.20;;;;;;10459002;28;20222;-75
2022/11/03 10:10:35;;;;;;;12.67;5.20;;;17.10;93.30;;;;;;10462652;28;20258;-73
2022/11/03 10:15:35;;;;;;;11.63;5.23;;;17.00;94.20;;;;;;10454396;28;20227;-75
2022/11/03 10:20:36;;;;;;;11.67;4.67;;;16.80;95.50;;;;;;10449294;28;20217;-74
2022/11/03 10:25:43;;;;;;;9.07;4.60;;;16.50;97.20;;;;;;10455530;28;20224;-73
2022/11/03 10:30:53;;;;;;;14.23;5.77;;;17.30;96.60;;;;;;10464463;28;20284;-75
2022/11/03 10:35:58;;;;;;;12.87;4.83;;;17.20;95.90;;;;;;10471991;28;20701;-73
2022/11/03 10:41:16;;;;;;;10.27;4.80;;;16.80;97.40;;;;;;10453598;28;20213;-75
2022/11/03 10:46:21;;;;;;;10.10;4.97;;;17.00;98.00;;;;;;10446729;28;20245;-74
2022/11/03 10:51:22;;;;;;;12.80;5.27;;;18.30;96.30;;;;;;10473151;28;20321;-75
2022/11/03 10:56:24;;;;;;;9.47;4.80;;;19.60;93.20;;;;;;10453721;28;20303;-73
2022/11/03 11:01:25;;;;;;;10.23;3.80;;;19.00;93.60;;;;;;10448923;28;20262;-74
2022/11/03 11:06:28;;;;;;;9.10;3.30;;;18.00;95.10;;;;;;10447657;28;20292;-74
2022/11/03 11:11:29;;;;;;;11.20;4.20;;;17.10;96.90;;;;;;10457638;28;20256;-75
2022/11/03 11:16:49;;;;;;;8.90;3.90;;;16.50;98.90;;;;;;10459355;28;20236;-75
2022/11/03 11:21:53;;;;;;;7.57;3.70;;;16.10;99.90;;;;;;10452908;28;20208;-75
2022/11/03 11:26:53;;;;;;;9.17;3.73;;;15.90;99.90;;;;;;10454365;28;20247;-75
2022/11/03 11:31:54;;;;;;;7.63;3.63;;;15.80;99.90;;;;;;10461040;28;20226;-74
2022/11/03 11:36:54;;;;;;;11.40;3.53;;;15.60;99.90;;;;;;10459556;28;20769;-73
2022/11/03 11:42:18;;;;;;;7.50;3.43;;;15.70;99.90;;;;;;10464708;28;20282;-74
2022/11/03 11:47:45;;;;;;;9.03;4.03;;;15.60;99.90;;;;;;10473876;28;20219;-75
2022/11/03 11:52:57;;;;;;;12.43;3.97;;;15.60;99.90;;;;;;10443533;28;20265;-75
2022/11/03 11:58:00;;;;;;;9.20;4.00;;;15.50;99.90;;;;;;10464275;28;20222;-74
2022/11/03 12:03:04;;;;;;;9.37;4.33;;;15.50;99.90;;;;;;10462423;28;20211;-74
2022/11/03 12:08:18;;;;;;;14.17;4.63;;;15.40;99.90;;;;;;10442210;28;20315;-75
2022/11/03 12:13:43;;;;;;;13.03;4.53;;;15.30;99.90;;;;;;10477691;28;20220;-73
2022/11/03 12:18:44;;;;;;;9.73;4.83;;;15.30;99.90;;;;;;10444589;28;20226;-74
2022/11/03 12:23:45;;;;;;;10.03;5.67;;;15.10;99.90;;;;;;10448825;28;20208;-74
2022/11/03 12:28:46;;;;;;;10.67;5.53;;;14.90;99.90;;;;;;10450146;28;20219;-74
2022/11/03 12:33:47;;;;;;;8.90;4.50;;;14.60;99.90;;;;;;10451413;28;20227;-76
2022/11/03 12:38:47;;;;;;;12.53;5.10;;;14.50;99.90;;;;;;10472131;28;20223;-74
2022/11/03 12:43:49;;;;;;;8.67;4.60;;;14.50;99.90;;;;;;10454453;28;20232;-75
2022/11/03 12:48:49;;;;;;;7.53;4.80;;;14.60;99.90;;;;;;10453972;28;20243;-73
2022/11/03 12:53:50;;;;;;;17.07;4.67;;;14.70;99.90;;;;;;10452295;28;20314;-73
2022/11/03 12:58:51;;;;;;;7.73;4.43;;;15.00;99.90;;;;;;10449441;28;20928;-75
2022/11/03 13:03:52;;;;;;;12.70;5.07;;;15.20;99.90;;;;;;10458807;28;20227;-74
2022/11/03 13:08:52;;;;;;;9.97;4.60;;;15.20;99.90;;;;;;10484100;28;20570;-74
2022/11/03 13:13:53;;;;;;;11.97;5.40;;;15.10;99.90;;;;;;10462621;28;20719;-75
2022/11/03 13:18:54;;;;;;;5.87;3.93;;;15.10;99.90;;;;;;10448827;28;20309;-75
2022/11/03 13:23:55;;;;;;;8.87;5.23;;;15.20;99.90;;;;;;10457707;28;20749;-74
2022/11/03 13:28:56;;;;;;;10.13;5.13;;;15.20;99.90;;;;;;10459338;28;20215;-74
2022/11/03 13:33:56;;;;;;;11.83;4.87;;;15.10;99.90;;;;;;10455774;28;20224;-74
2022/11/03 13:38:57;;;;;;;11.37;5.40;;;15.00;99.90;;;;;;10444174;28;20583;-72
2022/11/03 13:43:57;;;;;;;11.73;5.37;;;15.00;99.90;;;;;;10449499;28;20237;-73
2022/11/03 13:48:58;;;;;;;10.80;4.50;;;14.70;99.90;;;;;;10447395;28;20576;-73
2022/11/03 13:53:59;;;;;;;10.60;4.30;;;14.60;99.90;;;;;;10447577;28;20860;-73
2022/11/03 13:58:59;;;;;;;10.20;5.10;;;14.50;99.90;;;;;;10444820;28;20232;-73
2022/11/03 14:04:00;;;;;;;10.60;5.27;;;14.40;99.90;;;;;;10442227;28;20231;-77
2022/11/03 14:09:00;;;;;;;9.17;4.13;;;14.40;99.90;;;;;;10449753;28;20234;-76
2022/11/03 14:14:01;;;;;;;7.60;4.40;;;14.20;99.90;;;;;;10444686;28;20231;-76
2022/11/03 14:19:02;;;;;;;8.10;4.17;;;14.20;99.90;;;;;;10446315;28;20709;-78
2022/11/03 14:24:04;;;;;;;8.40;4.87;;;14.10;99.90;;;;;;10450226;28;20581;-77
2022/11/03 14:29:05;;;;;;;11.33;7.03;;;14.10;99.90;;;;;;10443499;28;20227;-76
2022/11/03 14:34:06;;;;;;;12.00;6.00;;;14.10;99.90;;;;;;10447950;28;20650;-77
2022/11/03 14:39:06;;;;;;;9.60;5.67;;;14.00;99.90;;;;;;10484245;28;20232;-77
2022/11/03 14:44:07;;;;;;;11.17;4.77;;;13.90;99.90;;;;;;10476573;28;20224;-77
2022/11/03 14:49:08;;;;;;;5.77;3.63;;;13.90;99.90;;;;;;10444108;28;20219;-76
2022/11/03 14:54:08;;;;;;;6.87;3.73;;;13.80;99.90;;;;;;10480770;28;20269;-77
2022/11/03 14:59:09;;;;;;;10.13;4.10;;;13.80;99.90;;;;;;10447380;28;20591;-75
2022/11/03 15:04:11;;;;;;;7.27;3.67;;;13.70;99.90;;;;;;10453308;28;20337;-76
2022/11/03 15:09:15;;;;;;;7.50;3.80;;;13.60;99.90;;;;;;10482359;28;20758;-75
2022/11/03 15:14:16;;;;;;;9.17;4.07;;;13.50;99.90;;;;;;10444692;28;20713;-76
2022/11/03 15:19:17;;;;;;;7.67;4.17;;;13.40;99.90;;;;;;10455907;28;20230;-77
2022/11/03 15:24:17;;;;;;;8.10;4.37;;;13.20;99.90;;;;;;10496983;28;20230;-77
2022/11/03 15:29:18;;;;;;;9.23;4.60;;;13.20;99.90;;;;;;10469235;28;20250;-78
2022/11/03 15:34:18;;;;;;;10.87;4.60;;;13.20;99.90;;;;;;10496280;28;20239;-78
2022/11/03 15:39:19;;;;;;;8.37;3.77;;;13.10;99.90;;;;;;10465345;28;20298;-77
2022/11/03 15:44:19;;;;;;;9.90;4.77;;;13.00;99.90;;;;;;10470101;28;20562;-78
2022/11/03 15:49:20;;;;;;;10.70;5.20;;;12.90;99.90;;;;;;10461828;28;20306;-77
2022/11/03 15:54:20;;;;;;;10.93;4.37;;;12.80;99.90;;;;;;10464787;28;20748;-76
2022/11/03 15:59:21;;;;;;;9.07;4.67;;;12.80;99.90;;;;;;10503482;28;20237;-77
2022/11/03 16:04:23;;;;;;;11.20;4.37;;;12.70;99.90;;;;;;10463538;28;20243;-78
2022/11/03 16:09:23;;;;;;;14.50;5.03;;;12.60;99.90;;;;;;10468546;28;20228;-77
2022/11/03 16:14:24;;;;;;;10.43;4.60;;;12.50;99.90;;;;;;10509655;28;20211;-77
2022/11/03 16:19:25;;;;;;;11.37;5.30;;;12.40;99.90;;;;;;10454844;28;20219;-73
2022/11/03 16:24:25;;;;;;;8.37;4.43;;;12.40;99.90;;;;;;10474724;28;20211;-73
2022/11/03 16:29:26;;;;;;;8.43;4.30;;;12.40;99.90;;;;;;10470918;28;20207;-73
2022/11/03 16:34:27;;;;;;;8.60;5.50;;;12.40;99.90;;;;;;10474321;28;20215;-73
2022/11/03 16:39:28;;;;;;;15.63;6.37;;;12.40;99.90;;;;;;10468494;28;20725;-73
2022/11/03 16:44:29;;;;;;;10.13;5.60;;;12.40;99.90;;;;;;10464471;28;20215;-72
2022/11/03 16:49:29;;;;;;;9.33;5.60;;;12.40;99.90;;;;;;10461458;28;20290;-72
2022/11/03 16:54:30;;;;;;;7.63;5.17;;;12.40;99.90;;;;;;10471960;28;20295;-73
2022/11/03 16:59:30;;;;;;;13.00;5.47;;;12.40;99.90;;;;;;10505860;28;20219;-73
2022/11/03 17:04:31;;;;;;;8.13;4.20;;;12.40;99.90;;;;;;10467908;28;20216;-72
2022/11/03 17:09:32;;;;;;;12.10;5.17;;;12.30;99.90;;;;;;10476633;28;20223;-72
2022/11/03 17:14:32;;;;;;;8.07;4.40;;;12.40;99.90;;;;;;10472074;28;20215;-73
2022/11/03 17:19:33;;;;;;;9.67;4.80;;;12.40;99.90;;;;;;10504519;28;20223;-72
2022/11/03 17:24:33;;;;;;;11.47;5.43;;;12.30;99.90;;;;;;10467377;28;20204;-73
2022/11/03 17:29:47;;;;;;;12.67;4.90;;;12.20;99.90;;;;;;10468236;28;20212;-72
2022/11/03 17:34:47;;;;;;;9.50;4.53;;;12.10;99.90;;;;;;10473550;28;20211;-71
2022/11/03 17:39:51;;;;;;;10.43;5.03;;;12.00;99.90;;;;;;10502121;28;20223;-72
2022/11/03 17:44:54;;;;;;;8.17;4.67;;;12.00;99.90;;;;;;10472411;28;20219;-73
2022/11/03 17:49:55;;;;;;;7.70;4.63;;;12.00;99.90;;;;;;10468416;28;20227;-72
2022/11/03 17:54:57;;;;;;;12.30;4.80;;;12.10;99.90;;;;;;10467184;28;20219;-73
2022/11/03 17:59:59;;;;;;;8.03;4.87;;;12.10;99.90;;;;;;10473537;28;20238;-73
2022/11/03 18:05:28;;;;;;;6.43;4.67;;;12.00;99.90;;;;;;10467273;28;20751;-73
2022/11/03 18:10:31;;;;;;;11.80;5.50;;;12.00;99.90;;;;;;10464029;28;20277;-73
2022/11/03 18:15:35;;;;;;;11.40;6.93;;;12.00;99.90;;;;;;10469714;28;20216;-72
2022/11/03 18:20:42;;;;;;;15.77;8.37;;;12.10;99.90;;;;;;10469150;28;20211;-72
2022/11/03 18:25:43;;;;;;;15.90;7.17;;;12.10;99.90;;;;;;10467870;28;20687;-72
2022/11/03 18:30:45;;;;;;;12.13;7.13;;;12.20;99.90;;;;;;10469336;28;20219;-72
2022/11/03 18:35:47;;;;;;;9.90;6.57;;;12.20;99.90;;;;;;10467051;28;20216;-73
2022/11/03 18:40:47;;;;;;;13.27;5.87;;;12.20;99.90;;;;;;10466894;28;20206;-72
2022/11/03 18:45:48;;;;;;;10.03;6.10;;;12.30;99.90;;;;;;10466592;28;20656;-74
2022/11/03 18:50:51;;;;;;;12.20;5.83;;;12.20;99.90;;;;;;10456309;28;20247;-71
2022/11/03 18:55:56;;;;;;;9.83;5.63;;;12.20;99.90;;;;;;10495356;28;20766;-73
2022/11/03 19:00:57;;;;;;;9.77;6.40;;;12.10;99.90;;;;;;10463914;28;20595;-72
2022/11/03 19:05:58;;;;;;;10.57;5.27;;;12.10;99.90;;;;;;10463977;28;20936;-73
2022/11/03 19:11:02;;;;;;;10.57;5.37;;;12.10;99.90;;;;;;10463624;28;20243;-73
2022/11/03 19:16:17;;;;;;;9.80;5.50;;;12.00;99.90;;;;;;10471993;28;20226;-73
2022/11/03 19:21:22;;;;;;;10.07;6.07;;;12.00;99.90;;;;;;10441645;28;20284;-72
2022/11/03 19:26:38;;;;;;;8.70;5.57;;;12.00;99.90;;;;;;10469957;28;20229;-72
2022/11/03 19:31:49;;;;;;;9.43;5.53;;;12.00;99.90;;;;;;10500213;28;20250;-73
2022/11/03 19:36:50;;;;;;;11.77;5.93;;;12.00;99.90;;;;;;10466318;28;20234;-71
2022/11/03 19:47:16;;;;;;;14.23;5.73;;;11.90;99.90;;;;;;10464896;28;20219;-73
2022/11/03 19:52:26;;;;;;;10.93;6.27;;;11.90;99.90;;;;;;10510840;28;20231;-73
2022/11/03 19:57:27;;;;;;;13.97;7.00;;;11.80;99.90;;;;;;10474622;28;20277;-73
2022/11/03 20:02:27;;;;;;;9.07;6.10;;;11.70;99.90;;;;;;10476798;28;20333;-73
2022/11/03 20:07:28;;;;;;;9.93;6.50;;;11.60;99.90;;;;;;10474260;28;20260;-72
2022/11/03 20:12:29;;;;;;;10.87;6.50;;;11.60;99.90;;;;;;10475980;28;20255;-73
2022/11/03 20:17:30;;;;;;;12.37;7.10;;;11.70;99.90;;;;;;10474734;28;20748;-73
2022/11/03 20:22:32;;;;;;;11.07;6.33;;;11.70;99.90;;;;;;10474290;28;20223;-74
2022/11/03 20:27:33;;;;;;;11.03;7.00;;;11.60;99.90;;;;;;10479310;28;20212;-72
2022/11/03 20:32:33;;;;;;;9.53;6.83;;;11.60;99.90;;;;;;10471932;28;20227;-72
2022/11/03 20:37:35;;;;;;;9.73;6.50;;;11.60;99.90;;;;;;10473095;28;20215;-73
2022/11/03 20:42:35;;;;;;;9.70;6.50;;;11.60;99.90;;;;;;10462986;28;20208;-75
2022/11/03 20:47:36;;;;;;;13.30;7.30;;;11.70;99.90;;;;;;10473112;28;20212;-72
2022/11/03 20:52:37;;;;;;;13.00;6.70;;;11.70;99.90;;;;;;10474304;28;20238;-73
2022/11/03 20:57:38;;;;;;;7.93;5.30;;;11.70;99.90;;;;;;10472848;28;20370;-74
2022/11/03 21:02:42;;;;;;;8.73;5.07;;;11.70;99.90;;;;;;10473934;28;20298;-72
2022/11/03 21:07:43;;;;;;;8.93;4.97;;;11.70;99.90;;;;;;10473444;28;20216;-72
2022/11/03 21:12:44;;;;;;;7.50;5.20;;;11.70;99.90;;;;;;10467367;28;20263;-73
2022/11/03 21:23:14;;;;;;;8.37;4.90;;;11.70;99.90;;;;;;10468233;28;20220;-73
2022/11/03 21:28:16;;;;;;;5.93;4.70;;;11.70;99.90;;;;;;10469119;28;20219;-73
2022/11/03 21:33:18;;;;;;;7.80;4.87;;;11.70;99.90;;;;;;10499111;28;20691;-73
2022/11/03 21:38:18;;;;;;;6.03;4.43;;;11.80;99.90;;;;;;10473527;28;20230;-72
2022/11/03 21:54:00;;;;;;;7.43;5.87;;;11.90;99.90;;;;;;10468188;28;20232;-72
2022/11/03 21:59:00;;;;;;;10.27;6.33;;;11.90;99.90;;;;;;10474534;28;20219;-73
2022/11/03 22:04:01;;;;;;;10.70;6.53;;;11.90;99.90;;;;;;10499336;28;20277;-73
2022/11/03 22:09:02;;;;;;;9.13;6.83;;;11.90;99.90;;;;;;10474249;28;20223;-73
2022/11/03 22:14:03;;;;;;;10.40;7.33;;;11.80;99.90;;;;;;10466837;28;20285;-73
2022/11/03 22:45:50;;;;;;;12.67;8.17;;;11.80;99.90;;;;;;10465326;28;20302;-72
2022/11/03 22:51:05;;;;;;;11.83;8.13;;;11.70;99.90;;;;;;10463136;28;20220;-72
2022/11/03 22:56:06;;;;;;;12.93;8.47;;;11.70;99.90;;;;;;10456017;28;20250;-74
2022/11/03 23:01:13;;;;;;;13.20;8.70;;;11.70;99.90;;;;;;10465121;28;20239;-73
2022/11/03 23:06:17;;;;;;;11.70;9.17;;;11.70;99.90;;;;;;10463421;28;20703;-73
2022/11/03 23:11:23;;;;;;;12.17;10.03;;;11.60;99.90;;;;;;10470536;28;20227;-73
2022/11/03 23:16:26;;;;;;;13.57;10.07;;;11.50;99.90;;;;;;10465888;28;20737;-72
2022/11/03 23:21:27;;;;;;;13.43;9.97;;;11.50;99.90;;;;;;10468898;28;20220;-72
2022/11/03 23:26:28;;;;;;;12.70;9.77;;;11.50;99.90;;;;;;10457544;28;21148;-72
2022/11/03 23:31:28;;;;;;;13.63;9.60;;;11.60;99.90;;;;;;10499132;28;20223;-72
2022/11/03 23:36:30;;;;;;;17.03;9.90;;;11.60;99.90;;;;;;10468794;28;20220;-72
2022/11/03 23:41:31;;;;;;;9.23;8.27;;;11.50;99.90;;;;;;10465447;28;20264;-72
2022/11/03 23:51:51;;;;;;;9.67;7.07;;;11.50;99.90;;;;;;10469616;28;20226;-72
